sensor_id;sensor_type;location;lat;lon;timestamp;temperature;humidity
1614;DHT22;800;48.824;9.346;2023-04-25T00:01:40;15.10;50.70
1614;DHT22;800;48.824;9.346;2023-04-25T00:04:06;15.10;50.70
1614;DHT22;800;48.824;9.346;2023-04-25T00:06:33;15.00;50.80
1614;DHT22;800;48.824;9.346;2023-04-25T00:09:02;15.10;50.70
1614;DHT22;800;48.824;9.346;2023-04-25T00:11:28;15.20;50.70
1614;DHT22;800;48.824;9.346;2023-04-25T00:13:56;15.30;50.50
1614;DHT22;800;48.824;9.346;2023-04-25T00:16:22;15.40;50.20
1614;DHT22;800;48.824;9.346;2023-04-25T00:18:49;15.40;50.30
1614;DHT22;800;48.824;9.346;2023-04-25T00:21:18;15.40;50.30
1614;DHT22;800;48.824;9.346;2023-04-25T00:23:45;15.50;50.40
1614;DHT22;800;48.824;9.346;2023-04-25T00:26:11;15.40;50.30
1614;DHT22;800;48.824;9.346;2023-04-25T00:28:37;15.50;50.30
1614;DHT22;800;48.824;9.346;2023-04-25T00:31:03;15.50;50.40
1614;DHT22;800;48.824;9.346;2023-04-25T00:33:29;15.60;50.30
1614;DHT22;800;48.824;9.346;2023-04-25T00:35:55;15.70;50.40
1614;DHT22;800;48.824;9.346;2023-04-25T00:38:21;15.70;50.30
1614;DHT22;800;48.824;9.346;2023-04-25T00:40:46;15.70;50.20
1614;DHT22;800;48.824;9.346;2023-04-25T00:43:12;15.70;50.40
1614;DHT22;800;48.824;9.346;2023-04-25T00:45:39;15.70;50.50
1614;DHT22;800;48.824;9.346;2023-04-25T00:48:05;15.70;50.50
1614;DHT22;800;48.824;9.346;2023-04-25T00:50:33;15.70;50.60
1614;DHT22;800;48.824;9.346;2023-04-25T00:52:59;15.60;50.60
1614;DHT22;800;48.824;9.346;2023-04-25T00:55:26;15.70;50.60
1614;DHT22;800;48.824;9.346;2023-04-25T00:57:51;15.60;50.40
1614;DHT22;800;48.824;9.346;2023-04-25T01:00:17;15.50;50.40
1614;DHT22;800;48.824;9.346;2023-04-25T01:02:43;15.60;50.60
1614;DHT22;800;48.824;9.346;2023-04-25T01:05:10;15.60;50.60
1614;DHT22;800;48.824;9.346;2023-04-25T01:07:35;15.60;50.70
1614;DHT22;800;48.824;9.346;2023-04-25T01:10:02;15.70;50.70
1614;DHT22;800;48.824;9.346;2023-04-25T01:12:28;15.60;50.70
1614;DHT22;800;48.824;9.346;2023-04-25T01:14:54;15.70;50.50
1614;DHT22;800;48.824;9.346;2023-04-25T01:17:20;15.70;50.50
1614;DHT22;800;48.824;9.346;2023-04-25T01:19:46;15.70;50.40
1614;DHT22;800;48.824;9.346;2023-04-25T01:22:13;15.70;50.40
1614;DHT22;800;48.824;9.346;2023-04-25T01:24:40;15.70;50.40
1614;DHT22;800;48.824;9.346;2023-04-25T01:27:06;15.70;50.40
1614;DHT22;800;48.824;9.346;2023-04-25T01:29:35;15.70;50.50
1614;DHT22;800;48.824;9.346;2023-04-25T01:32:01;15.70;50.60
1614;DHT22;800;48.824;9.346;2023-04-25T01:34:27;15.70;50.60
1614;DHT22;800;48.824;9.346;2023-04-25T01:36:53;15.70;50.60
1614;DHT22;800;48.824;9.346;2023-04-25T01:39:19;15.70;50.50
1614;DHT22;800;48.824;9.346;2023-04-25T01:41:48;15.70;50.50
1614;DHT22;800;48.824;9.346;2023-04-25T01:44:14;15.70;50.50
1614;DHT22;800;48.824;9.346;2023-04-25T01:46:40;15.70;50.40
1614;DHT22;800;48.824;9.346;2023-04-25T01:49:06;15.70;50.40
1614;DHT22;800;48.824;9.346;2023-04-25T01:51:32;15.70;50.40
1614;DHT22;800;48.824;9.346;2023-04-25T01:53:58;15.70;50.40
1614;DHT22;800;48.824;9.346;2023-04-25T01:56:24;15.70;50.20
1614;DHT22;800;48.824;9.346;2023-04-25T01:58:50;15.60;50.20
1614;DHT22;800;48.824;9.346;2023-04-25T02:01:16;15.60;50.20
1614;DHT22;800;48.824;9.346;2023-04-25T02:03:42;15.50;50.20
1614;DHT22;800;48.824;9.346;2023-04-25T02:06:08;15.60;50.20
1614;DHT22;800;48.824;9.346;2023-04-25T02:08:34;15.50;50.20
1614;DHT22;800;48.824;9.346;2023-04-25T02:10:59;15.50;50.20
1614;DHT22;800;48.824;9.346;2023-04-25T02:13:25;15.60;50.20
1614;DHT22;800;48.824;9.346;2023-04-25T02:15:50;15.60;50.20
1614;DHT22;800;48.824;9.346;2023-04-25T02:18:16;15.60;50.20
1614;DHT22;800;48.824;9.346;2023-04-25T02:20:42;15.60;50.20
1614;DHT22;800;48.824;9.346;2023-04-25T02:23:08;15.60;50.20
1614;DHT22;800;48.824;9.346;2023-04-25T02:25:33;15.50;50.20
1614;DHT22;800;48.824;9.346;2023-04-25T02:27:59;15.50;50.50
1614;DHT22;800;48.824;9.346;2023-04-25T02:30:25;15.50;50.90
1614;DHT22;800;48.824;9.346;2023-04-25T02:32:50;15.60;51.20
1614;DHT22;800;48.824;9.346;2023-04-25T02:35:16;15.60;51.20
1614;DHT22;800;48.824;9.346;2023-04-25T02:37:42;15.50;51.20
1614;DHT22;800;48.824;9.346;2023-04-25T02:40:08;15.60;51.30
1614;DHT22;800;48.824;9.346;2023-04-25T02:42:34;15.60;51.40
1614;DHT22;800;48.824;9.346;2023-04-25T02:45:00;15.50;51.30
1614;DHT22;800;48.824;9.346;2023-04-25T02:47:25;15.50;51.30
1614;DHT22;800;48.824;9.346;2023-04-25T02:49:51;15.50;51.10
1614;DHT22;800;48.824;9.346;2023-04-25T02:52:17;15.50;51.30
1614;DHT22;800;48.824;9.346;2023-04-25T02:54:42;15.50;51.60
1614;DHT22;800;48.824;9.346;2023-04-25T02:57:08;15.40;51.80
1614;DHT22;800;48.824;9.346;2023-04-25T02:59:34;15.40;51.90
1614;DHT22;800;48.824;9.346;2023-04-25T03:02:00;15.30;52.00
1614;DHT22;800;48.824;9.346;2023-04-25T03:04:25;15.30;52.10
1614;DHT22;800;48.824;9.346;2023-04-25T03:06:51;15.30;52.10
1614;DHT22;800;48.824;9.346;2023-04-25T03:09:17;15.30;52.10
1614;DHT22;800;48.824;9.346;2023-04-25T03:11:44;15.30;52.20
1614;DHT22;800;48.824;9.346;2023-04-25T03:14:10;15.20;52.30
1614;DHT22;800;48.824;9.346;2023-04-25T03:16:35;15.30;52.60
1614;DHT22;800;48.824;9.346;2023-04-25T03:19:02;15.30;52.70
1614;DHT22;800;48.824;9.346;2023-04-25T03:21:27;15.20;52.60
1614;DHT22;800;48.824;9.346;2023-04-25T03:23:53;15.20;52.70
1614;DHT22;800;48.824;9.346;2023-04-25T03:26:19;15.20;52.80
1614;DHT22;800;48.824;9.346;2023-04-25T03:28:44;15.20;52.80
1614;DHT22;800;48.824;9.346;2023-04-25T03:31:10;15.10;52.90
1614;DHT22;800;48.824;9.346;2023-04-25T03:33:35;15.10;53.20
1614;DHT22;800;48.824;9.346;2023-04-25T03:36:01;15.10;53.50
1614;DHT22;800;48.824;9.346;2023-04-25T03:38:27;15.10;53.60
1614;DHT22;800;48.824;9.346;2023-04-25T03:40:53;15.10;53.70
1614;DHT22;800;48.824;9.346;2023-04-25T03:43:19;15.10;53.80
1614;DHT22;800;48.824;9.346;2023-04-25T03:45:45;15.10;53.70
1614;DHT22;800;48.824;9.346;2023-04-25T03:48:11;15.10;53.80
1614;DHT22;800;48.824;9.346;2023-04-25T03:50:36;15.10;53.90
1614;DHT22;800;48.824;9.346;2023-04-25T03:53:02;15.10;54.20
1614;DHT22;800;48.824;9.346;2023-04-25T03:55:28;15.00;54.30
1614;DHT22;800;48.824;9.346;2023-04-25T03:57:53;15.10;54.20
1614;DHT22;800;48.824;9.346;2023-04-25T04:00:19;15.10;54.10
1614;DHT22;800;48.824;9.346;2023-04-25T04:02:44;15.10;53.90
1614;DHT22;800;48.824;9.346;2023-04-25T04:05:10;15.10;53.80
1614;DHT22;800;48.824;9.346;2023-04-25T04:07:36;15.10;53.80
1614;DHT22;800;48.824;9.346;2023-04-25T04:10:09;15.00;53.80
1614;DHT22;800;48.824;9.346;2023-04-25T04:12:35;15.00;53.80
1614;DHT22;800;48.824;9.346;2023-04-25T04:15:02;15.10;53.70
1614;DHT22;800;48.824;9.346;2023-04-25T04:17:29;15.10;53.60
1614;DHT22;800;48.824;9.346;2023-04-25T04:19:55;15.10;53.50
1614;DHT22;800;48.824;9.346;2023-04-25T04:22:20;15.10;53.30
1614;DHT22;800;48.824;9.346;2023-04-25T04:24:46;15.00;53.20
1614;DHT22;800;48.824;9.346;2023-04-25T04:27:13;15.10;53.00
1614;DHT22;800;48.824;9.346;2023-04-25T04:29:39;15.10;53.00
1614;DHT22;800;48.824;9.346;2023-04-25T04:32:04;15.10;53.00
1614;DHT22;800;48.824;9.346;2023-04-25T04:34:30;15.00;52.90
1614;DHT22;800;48.824;9.346;2023-04-25T04:36:56;15.00;52.80
1614;DHT22;800;48.824;9.346;2023-04-25T04:39:22;15.00;52.80
1614;DHT22;800;48.824;9.346;2023-04-25T04:41:48;15.00;53.00
1614;DHT22;800;48.824;9.346;2023-04-25T04:44:14;15.00;52.90
1614;DHT22;800;48.824;9.346;2023-04-25T04:46:40;15.00;53.00
1614;DHT22;800;48.824;9.346;2023-04-25T04:49:10;15.00;53.30
1614;DHT22;800;48.824;9.346;2023-04-25T04:51:36;15.10;53.60
1614;DHT22;800;48.824;9.346;2023-04-25T04:54:02;15.10;53.60
1614;DHT22;800;48.824;9.346;2023-04-25T04:56:29;15.10;53.70
1614;DHT22;800;48.824;9.346;2023-04-25T04:58:58;15.20;53.90
1614;DHT22;800;48.824;9.346;2023-04-25T05:01:23;15.20;53.90
1614;DHT22;800;48.824;9.346;2023-04-25T05:03:49;15.20;54.00
1614;DHT22;800;48.824;9.346;2023-04-25T05:06:16;15.20;53.70
1614;DHT22;800;48.824;9.346;2023-04-25T05:08:42;15.10;52.90
1614;DHT22;800;48.824;9.346;2023-04-25T05:11:08;15.00;52.70
1614;DHT22;800;48.824;9.346;2023-04-25T05:13:33;15.00;52.40
1614;DHT22;800;48.824;9.346;2023-04-25T05:15:59;15.00;52.60
1614;DHT22;800;48.824;9.346;2023-04-25T05:18:24;15.00;52.90
1614;DHT22;800;48.824;9.346;2023-04-25T05:20:50;15.00;53.00
1614;DHT22;800;48.824;9.346;2023-04-25T05:23:15;15.00;53.00
1614;DHT22;800;48.824;9.346;2023-04-25T05:25:41;14.90;52.70
1614;DHT22;800;48.824;9.346;2023-04-25T05:28:07;14.90;52.40
1614;DHT22;800;48.824;9.346;2023-04-25T05:30:34;14.90;52.50
1614;DHT22;800;48.824;9.346;2023-04-25T05:32:59;15.00;52.70
1614;DHT22;800;48.824;9.346;2023-04-25T05:35:25;15.00;52.90
1614;DHT22;800;48.824;9.346;2023-04-25T05:37:51;15.00;52.80
1614;DHT22;800;48.824;9.346;2023-04-25T05:40:17;15.00;52.40
1614;DHT22;800;48.824;9.346;2023-04-25T05:42:42;14.90;52.50
1614;DHT22;800;48.824;9.346;2023-04-25T05:45:08;14.90;52.70
1614;DHT22;800;48.824;9.346;2023-04-25T05:47:34;15.00;53.00
1614;DHT22;800;48.824;9.346;2023-04-25T05:49:59;14.80;53.40
1614;DHT22;800;48.824;9.346;2023-04-25T05:52:25;14.80;53.60
1614;DHT22;800;48.824;9.346;2023-04-25T05:54:51;14.60;53.80
1614;DHT22;800;48.824;9.346;2023-04-25T05:57:24;14.40;53.80
1614;DHT22;800;48.824;9.346;2023-04-25T05:59:50;14.40;54.70
1614;DHT22;800;48.824;9.346;2023-04-25T06:02:16;14.40;55.10
1614;DHT22;800;48.824;9.346;2023-04-25T06:04:42;14.40;55.90
1614;DHT22;800;48.824;9.346;2023-04-25T06:07:07;14.50;56.10
1614;DHT22;800;48.824;9.346;2023-04-25T06:09:33;14.70;56.10
1614;DHT22;800;48.824;9.346;2023-04-25T06:11:59;14.80;56.30
1614;DHT22;800;48.824;9.346;2023-04-25T06:14:25;14.90;56.60
1614;DHT22;800;48.824;9.346;2023-04-25T06:16:50;15.00;56.70
1614;DHT22;800;48.824;9.346;2023-04-25T06:19:16;15.00;56.30
1614;DHT22;800;48.824;9.346;2023-04-25T06:21:43;15.00;56.20
1614;DHT22;800;48.824;9.346;2023-04-25T06:24:09;14.90;56.00
1614;DHT22;800;48.824;9.346;2023-04-25T06:26:35;14.80;56.10
1614;DHT22;800;48.824;9.346;2023-04-25T06:29:00;14.90;56.40
1614;DHT22;800;48.824;9.346;2023-04-25T06:31:26;14.80;56.10
1614;DHT22;800;48.824;9.346;2023-04-25T06:33:52;14.80;56.10
1614;DHT22;800;48.824;9.346;2023-04-25T06:36:20;14.70;55.90
1614;DHT22;800;48.824;9.346;2023-04-25T06:38:50;14.80;56.10
1614;DHT22;800;48.824;9.346;2023-04-25T06:41:16;14.80;55.90
1614;DHT22;800;48.824;9.346;2023-04-25T06:43:41;15.00;56.30
1614;DHT22;800;48.824;9.346;2023-04-25T06:46:07;14.90;54.80
1614;DHT22;800;48.824;9.346;2023-04-25T06:48:32;15.00;55.20
1614;DHT22;800;48.824;9.346;2023-04-25T06:50:58;15.20;54.80
1614;DHT22;800;48.824;9.346;2023-04-25T06:53:24;15.20;54.90
1614;DHT22;800;48.824;9.346;2023-04-25T06:55:49;15.20;54.70
1614;DHT22;800;48.824;9.346;2023-04-25T06:58:15;15.30;54.60
1614;DHT22;800;48.824;9.346;2023-04-25T07:00:41;15.40;54.70
1614;DHT22;800;48.824;9.346;2023-04-25T07:03:07;15.50;54.50
1614;DHT22;800;48.824;9.346;2023-04-25T07:05:32;15.60;54.20
1614;DHT22;800;48.824;9.346;2023-04-25T07:07:58;15.80;54.30
1614;DHT22;800;48.824;9.346;2023-04-25T07:10:23;15.80;53.90
1614;DHT22;800;48.824;9.346;2023-04-25T07:12:50;15.80;53.70
1614;DHT22;800;48.824;9.346;2023-04-25T07:15:16;15.90;53.60
1614;DHT22;800;48.824;9.346;2023-04-25T07:17:41;15.80;53.20
1614;DHT22;800;48.824;9.346;2023-04-25T07:20:08;15.70;53.70
1614;DHT22;800;48.824;9.346;2023-04-25T07:22:35;15.70;53.50
1614;DHT22;800;48.824;9.346;2023-04-25T07:25:00;15.70;53.60
1614;DHT22;800;48.824;9.346;2023-04-25T07:27:26;15.70;53.20
1614;DHT22;800;48.824;9.346;2023-04-25T07:29:52;15.80;52.90
1614;DHT22;800;48.824;9.346;2023-04-25T07:32:18;15.70;52.90
1614;DHT22;800;48.824;9.346;2023-04-25T07:34:47;15.60;53.20
1614;DHT22;800;48.824;9.346;2023-04-25T07:37:13;15.30;53.30
1614;DHT22;800;48.824;9.346;2023-04-25T07:39:39;15.20;53.80
1614;DHT22;800;48.824;9.346;2023-04-25T07:42:05;15.40;53.90
1614;DHT22;800;48.824;9.346;2023-04-25T07:44:33;15.40;53.70
1614;DHT22;800;48.824;9.346;2023-04-25T07:47:04;15.40;53.80
1614;DHT22;800;48.824;9.346;2023-04-25T07:49:33;15.50;53.40
1614;DHT22;800;48.824;9.346;2023-04-25T07:52:00;15.60;53.30
1614;DHT22;800;48.824;9.346;2023-04-25T07:54:26;15.70;53.40
1614;DHT22;800;48.824;9.346;2023-04-25T07:56:51;15.60;53.20
1614;DHT22;800;48.824;9.346;2023-04-25T07:59:17;15.50;53.70
1614;DHT22;800;48.824;9.346;2023-04-25T08:01:43;15.50;53.80
1614;DHT22;800;48.824;9.346;2023-04-25T08:04:08;15.50;53.70
1614;DHT22;800;48.824;9.346;2023-04-25T08:06:34;15.60;53.80
1614;DHT22;800;48.824;9.346;2023-04-25T08:09:00;15.80;53.90
1614;DHT22;800;48.824;9.346;2023-04-25T08:11:25;15.90;53.90
1614;DHT22;800;48.824;9.346;2023-04-25T08:13:51;15.90;53.40
1614;DHT22;800;48.824;9.346;2023-04-25T08:16:16;15.90;53.50
1614;DHT22;800;48.824;9.346;2023-04-25T08:18:42;15.90;54.30
1614;DHT22;800;48.824;9.346;2023-04-25T08:21:08;16.00;54.80
1614;DHT22;800;48.824;9.346;2023-04-25T08:23:36;16.00;55.00
1614;DHT22;800;48.824;9.346;2023-04-25T08:26:02;16.10;55.30
1614;DHT22;800;48.824;9.346;2023-04-25T08:28:28;16.10;55.20
1614;DHT22;800;48.824;9.346;2023-04-25T08:30:54;16.10;55.70
1614;DHT22;800;48.824;9.346;2023-04-25T08:33:19;16.00;55.90
1614;DHT22;800;48.824;9.346;2023-04-25T08:35:45;16.00;56.50
1614;DHT22;800;48.824;9.346;2023-04-25T08:38:11;16.00;56.90
1614;DHT22;800;48.824;9.346;2023-04-25T08:40:38;16.00;57.00
1614;DHT22;800;48.824;9.346;2023-04-25T08:43:06;16.10;57.20
1614;DHT22;800;48.824;9.346;2023-04-25T08:45:39;16.10;57.60
1614;DHT22;800;48.824;9.346;2023-04-25T08:48:09;16.10;58.00
1614;DHT22;800;48.824;9.346;2023-04-25T08:50:37;16.00;57.50
1614;DHT22;800;48.824;9.346;2023-04-25T08:53:08;16.00;57.30
1614;DHT22;800;48.824;9.346;2023-04-25T08:55:37;16.00;56.60
1614;DHT22;800;48.824;9.346;2023-04-25T08:58:06;16.10;56.50
1614;DHT22;800;48.824;9.346;2023-04-25T09:00:32;16.20;56.50
1614;DHT22;800;48.824;9.346;2023-04-25T09:02:58;16.10;56.80
1614;DHT22;800;48.824;9.346;2023-04-25T09:05:24;16.10;57.40
1614;DHT22;800;48.824;9.346;2023-04-25T09:07:49;16.10;57.60
1614;DHT22;800;48.824;9.346;2023-04-25T09:10:15;16.20;57.50
1614;DHT22;800;48.824;9.346;2023-04-25T09:12:41;16.20;57.10
1614;DHT22;800;48.824;9.346;2023-04-25T09:15:09;16.20;56.20
1614;DHT22;800;48.824;9.346;2023-04-25T09:17:35;16.20;55.70
1614;DHT22;800;48.824;9.346;2023-04-25T09:20:10;16.10;55.00
1614;DHT22;800;48.824;9.346;2023-04-25T09:22:37;16.10;55.30
1614;DHT22;800;48.824;9.346;2023-04-25T09:25:12;16.00;55.30
1614;DHT22;800;48.824;9.346;2023-04-25T09:27:53;16.00;55.70
1614;DHT22;800;48.824;9.346;2023-04-25T09:30:29;16.00;56.10
1614;DHT22;800;48.824;9.346;2023-04-25T09:33:09;15.90;56.00
1614;DHT22;800;48.824;9.346;2023-04-25T09:35:40;15.70;56.20
1614;DHT22;800;48.824;9.346;2023-04-25T09:38:15;15.70;56.30
1614;DHT22;800;48.824;9.346;2023-04-25T09:40:47;15.70;56.70
1614;DHT22;800;48.824;9.346;2023-04-25T09:43:21;15.70;56.70
1614;DHT22;800;48.824;9.346;2023-04-25T09:45:47;15.70;56.90
1614;DHT22;800;48.824;9.346;2023-04-25T09:48:20;15.60;57.00
1614;DHT22;800;48.824;9.346;2023-04-25T09:51:08;15.40;57.10
1614;DHT22;800;48.824;9.346;2023-04-25T09:53:39;15.30;57.30
1614;DHT22;800;48.824;9.346;2023-04-25T09:56:07;15.20;57.40
1614;DHT22;800;48.824;9.346;2023-04-25T09:58:35;15.10;57.20
1614;DHT22;800;48.824;9.346;2023-04-25T10:01:06;15.00;56.90
1614;DHT22;800;48.824;9.346;2023-04-25T10:03:34;14.90;57.50
1614;DHT22;800;48.824;9.346;2023-04-25T10:06:02;14.80;58.10
1614;DHT22;800;48.824;9.346;2023-04-25T10:08:33;14.70;58.20
1614;DHT22;800;48.824;9.346;2023-04-25T10:11:04;14.80;58.50
1614;DHT22;800;48.824;9.346;2023-04-25T10:13:31;14.80;58.90
1614;DHT22;800;48.824;9.346;2023-04-25T10:16:02;14.80;58.90
1614;DHT22;800;48.824;9.346;2023-04-25T10:18:29;14.60;58.60
1614;DHT22;800;48.824;9.346;2023-04-25T10:20:57;14.50;58.60
1614;DHT22;800;48.824;9.346;2023-04-25T10:23:23;14.40;58.50
1614;DHT22;800;48.824;9.346;2023-04-25T10:25:51;14.30;58.60
1614;DHT22;800;48.824;9.346;2023-04-25T10:28:17;14.30;59.20
1614;DHT22;800;48.824;9.346;2023-04-25T10:31:07;14.20;59.70
1614;DHT22;800;48.824;9.346;2023-04-25T10:33:37;14.20;59.70
1614;DHT22;800;48.824;9.346;2023-04-25T10:36:20;14.10;59.30
1614;DHT22;800;48.824;9.346;2023-04-25T10:38:47;14.20;59.50
1614;DHT22;800;48.824;9.346;2023-04-25T10:41:14;14.30;60.00
1614;DHT22;800;48.824;9.346;2023-04-25T10:43:49;14.30;60.00
1614;DHT22;800;48.824;9.346;2023-04-25T10:46:24;14.20;60.10
1614;DHT22;800;48.824;9.346;2023-04-25T10:48:51;14.10;59.90
1614;DHT22;800;48.824;9.346;2023-04-25T10:51:18;13.80;60.50
1614;DHT22;800;48.824;9.346;2023-04-25T10:53:45;13.80;61.30
1614;DHT22;800;48.824;9.346;2023-04-25T10:58:45;13.20;61.30
1614;DHT22;800;48.824;9.346;2023-04-25T11:01:20;12.90;63.90
1614;DHT22;800;48.824;9.346;2023-04-25T11:03:45;13.00;64.70
1614;DHT22;800;48.824;9.346;2023-04-25T11:06:28;13.20;63.90
1614;DHT22;800;48.824;9.346;2023-04-25T11:08:55;13.20;63.10
1614;DHT22;800;48.824;9.346;2023-04-25T11:11:20;13.40;62.40
1614;DHT22;800;48.824;9.346;2023-04-25T11:13:49;13.60;62.90
1614;DHT22;800;48.824;9.346;2023-04-25T11:16:16;13.70;62.90
1614;DHT22;800;48.824;9.346;2023-04-25T11:18:42;13.70;61.90
1614;DHT22;800;48.824;9.346;2023-04-25T11:21:09;13.80;61.40
1614;DHT22;800;48.824;9.346;2023-04-25T11:23:35;13.90;61.20
1614;DHT22;800;48.824;9.346;2023-04-25T11:26:00;14.00;60.90
1614;DHT22;800;48.824;9.346;2023-04-25T11:28:27;13.90;59.70
1614;DHT22;800;48.824;9.346;2023-04-25T11:30:52;14.00;59.70
1614;DHT22;800;48.824;9.346;2023-04-25T11:33:23;14.00;59.30
1614;DHT22;800;48.824;9.346;2023-04-25T11:35:49;14.00;59.10
1614;DHT22;800;48.824;9.346;2023-04-25T11:38:15;14.10;58.90
1614;DHT22;800;48.824;9.346;2023-04-25T11:40:41;14.10;59.10
1614;DHT22;800;48.824;9.346;2023-04-25T11:43:06;14.20;59.30
1614;DHT22;800;48.824;9.346;2023-04-25T11:45:32;14.30;59.30
1614;DHT22;800;48.824;9.346;2023-04-25T11:47:58;14.40;59.50
1614;DHT22;800;48.824;9.346;2023-04-25T11:50:23;14.50;59.80
1614;DHT22;800;48.824;9.346;2023-04-25T11:52:49;14.60;58.70
1614;DHT22;800;48.824;9.346;2023-04-25T11:55:18;14.70;58.90
1614;DHT22;800;48.824;9.346;2023-04-25T11:57:50;14.70;58.30
1614;DHT22;800;48.824;9.346;2023-04-25T12:00:19;14.80;59.00
1614;DHT22;800;48.824;9.346;2023-04-25T12:02:54;14.90;58.60
1614;DHT22;800;48.824;9.346;2023-04-25T12:05:25;15.00;58.80
1614;DHT22;800;48.824;9.346;2023-04-25T12:07:51;15.00;57.90
1614;DHT22;800;48.824;9.346;2023-04-25T12:10:18;14.90;58.40
1614;DHT22;800;48.824;9.346;2023-04-25T12:12:45;15.00;57.90
1614;DHT22;800;48.824;9.346;2023-04-25T12:17:42;15.00;58.60
1614;DHT22;800;48.824;9.346;2023-04-25T12:20:15;14.80;58.80
1614;DHT22;800;48.824;9.346;2023-04-25T12:22:45;14.50;58.10
1614;DHT22;800;48.824;9.346;2023-04-25T12:28:09;14.30;58.50
1614;DHT22;800;48.824;9.346;2023-04-25T12:33:27;14.20;59.70
1614;DHT22;800;48.824;9.346;2023-04-25T12:35:54;14.10;59.90
1614;DHT22;800;48.824;9.346;2023-04-25T12:38:31;14.10;60.00
1614;DHT22;800;48.824;9.346;2023-04-25T12:40:57;14.00;59.80
1614;DHT22;800;48.824;9.346;2023-04-25T12:43:23;13.80;61.00
1614;DHT22;800;48.824;9.346;2023-04-25T12:45:50;13.80;60.90
1614;DHT22;800;48.824;9.346;2023-04-25T12:48:17;14.00;61.20
1614;DHT22;800;48.824;9.346;2023-04-25T12:50:43;14.20;61.70
1614;DHT22;800;48.824;9.346;2023-04-25T12:53:10;14.20;61.20
1614;DHT22;800;48.824;9.346;2023-04-25T12:55:37;14.20;60.60
1614;DHT22;800;48.824;9.346;2023-04-25T12:58:03;14.10;59.60
1614;DHT22;800;48.824;9.346;2023-04-25T13:00:41;14.10;60.20
1614;DHT22;800;48.824;9.346;2023-04-25T13:03:19;14.30;60.90
1614;DHT22;800;48.824;9.346;2023-04-25T13:05:45;14.30;60.40
1614;DHT22;800;48.824;9.346;2023-04-25T13:08:10;14.40;62.10
1614;DHT22;800;48.824;9.346;2023-04-25T13:10:36;14.60;62.20
1614;DHT22;800;48.824;9.346;2023-04-25T13:13:04;14.70;62.90
1614;DHT22;800;48.824;9.346;2023-04-25T13:15:30;14.70;60.40
1614;DHT22;800;48.824;9.346;2023-04-25T13:17:55;14.90;62.80
1614;DHT22;800;48.824;9.346;2023-04-25T13:20:21;14.90;60.20
1614;DHT22;800;48.824;9.346;2023-04-25T13:22:47;15.10;60.30
1614;DHT22;800;48.824;9.346;2023-04-25T13:25:13;15.30;59.30
1614;DHT22;800;48.824;9.346;2023-04-25T13:27:39;15.50;58.70
1614;DHT22;800;48.824;9.346;2023-04-25T13:30:06;15.50;58.20
1614;DHT22;800;48.824;9.346;2023-04-25T13:32:36;15.40;58.30
1614;DHT22;800;48.824;9.346;2023-04-25T13:35:04;15.30;58.20
1614;DHT22;800;48.824;9.346;2023-04-25T13:37:30;15.40;58.60
1614;DHT22;800;48.824;9.346;2023-04-25T13:39:59;15.40;58.10
1614;DHT22;800;48.824;9.346;2023-04-25T13:42:24;15.40;57.60
1614;DHT22;800;48.824;9.346;2023-04-25T13:44:50;15.40;57.70
1614;DHT22;800;48.824;9.346;2023-04-25T13:47:16;15.50;58.10
1614;DHT22;800;48.824;9.346;2023-04-25T13:49:41;15.50;58.60
1614;DHT22;800;48.824;9.346;2023-04-25T13:52:07;15.50;58.20
1614;DHT22;800;48.824;9.346;2023-04-25T13:54:33;15.40;57.60
1614;DHT22;800;48.824;9.346;2023-04-25T13:56:58;15.50;57.20
1614;DHT22;800;48.824;9.346;2023-04-25T13:59:25;15.10;58.10
1614;DHT22;800;48.824;9.346;2023-04-25T14:01:51;15.20;58.20
1614;DHT22;800;48.824;9.346;2023-04-25T14:04:17;14.90;57.10
1614;DHT22;800;48.824;9.346;2023-04-25T14:06:42;15.10;58.90
1614;DHT22;800;48.824;9.346;2023-04-25T14:09:08;15.00;59.60
1614;DHT22;800;48.824;9.346;2023-04-25T14:11:36;15.40;59.70
1614;DHT22;800;48.824;9.346;2023-04-25T14:14:02;15.40;57.60
1614;DHT22;800;48.824;9.346;2023-04-25T14:16:29;15.20;57.30
1614;DHT22;800;48.824;9.346;2023-04-25T14:18:55;15.30;58.20
1614;DHT22;800;48.824;9.346;2023-04-25T14:21:20;15.30;57.40
1614;DHT22;800;48.824;9.346;2023-04-25T14:23:46;15.50;57.50
1614;DHT22;800;48.824;9.346;2023-04-25T14:26:12;15.60;56.40
1614;DHT22;800;48.824;9.346;2023-04-25T14:28:38;15.40;55.60
1614;DHT22;800;48.824;9.346;2023-04-25T14:31:04;15.40;56.00
1614;DHT22;800;48.824;9.346;2023-04-25T14:33:29;15.70;57.20
1614;DHT22;800;48.824;9.346;2023-04-25T14:35:56;15.60;56.00
1614;DHT22;800;48.824;9.346;2023-04-25T14:38:21;15.60;56.00
1614;DHT22;800;48.824;9.346;2023-04-25T14:40:49;15.50;55.90
1614;DHT22;800;48.824;9.346;2023-04-25T14:43:14;15.50;55.40
1614;DHT22;800;48.824;9.346;2023-04-25T14:45:40;15.50;56.00
1614;DHT22;800;48.824;9.346;2023-04-25T14:48:06;15.80;55.80
1614;DHT22;800;48.824;9.346;2023-04-25T14:50:32;16.00;54.90
1614;DHT22;800;48.824;9.346;2023-04-25T14:52:58;16.20;54.30
1614;DHT22;800;48.824;9.346;2023-04-25T14:55:28;16.10;54.00
1614;DHT22;800;48.824;9.346;2023-04-25T14:57:54;16.20;54.20
1614;DHT22;800;48.824;9.346;2023-04-25T15:00:20;16.30;55.10
1614;DHT22;800;48.824;9.346;2023-04-25T15:02:48;16.40;54.10
1614;DHT22;800;48.824;9.346;2023-04-25T15:05:13;16.40;53.60
1614;DHT22;800;48.824;9.346;2023-04-25T15:07:39;16.20;53.20
1614;DHT22;800;48.824;9.346;2023-04-25T15:10:06;16.20;53.80
1614;DHT22;800;48.824;9.346;2023-04-25T15:12:36;16.20;53.30
1614;DHT22;800;48.824;9.346;2023-04-25T15:15:03;16.10;53.80
1614;DHT22;800;48.824;9.346;2023-04-25T15:17:28;16.00;54.20
1614;DHT22;800;48.824;9.346;2023-04-25T15:19:56;16.00;54.10
1614;DHT22;800;48.824;9.346;2023-04-25T15:22:22;16.00;53.10
1614;DHT22;800;48.824;9.346;2023-04-25T15:24:47;16.20;54.20
1614;DHT22;800;48.824;9.346;2023-04-25T15:27:13;16.10;53.20
1614;DHT22;800;48.824;9.346;2023-04-25T15:29:39;16.50;52.90
1614;DHT22;800;48.824;9.346;2023-04-25T15:32:05;16.90;51.70
1614;DHT22;800;48.824;9.346;2023-04-25T15:34:33;16.90;51.60
1614;DHT22;800;48.824;9.346;2023-04-25T15:36:59;17.10;51.70
1614;DHT22;800;48.824;9.346;2023-04-25T15:39:25;17.10;50.50
1614;DHT22;800;48.824;9.346;2023-04-25T15:41:51;17.30;51.00
1614;DHT22;800;48.824;9.346;2023-04-25T15:44:19;17.20;48.80
1614;DHT22;800;48.824;9.346;2023-04-25T15:46:44;17.00;50.20
1614;DHT22;800;48.824;9.346;2023-04-25T15:49:10;17.10;50.10
1614;DHT22;800;48.824;9.346;2023-04-25T15:51:36;17.10;49.50
1614;DHT22;800;48.824;9.346;2023-04-25T15:54:02;17.00;49.30
1614;DHT22;800;48.824;9.346;2023-04-25T15:56:28;17.00;50.00
1614;DHT22;800;48.824;9.346;2023-04-25T15:58:54;16.90;50.70
1614;DHT22;800;48.824;9.346;2023-04-25T16:01:19;16.90;50.60
1614;DHT22;800;48.824;9.346;2023-04-25T16:03:49;16.90;50.10
1614;DHT22;800;48.824;9.346;2023-04-25T16:06:15;16.80;50.00
1614;DHT22;800;48.824;9.346;2023-04-25T16:08:41;16.50;50.80
1614;DHT22;800;48.824;9.346;2023-04-25T16:11:06;16.70;51.00
1614;DHT22;800;48.824;9.346;2023-04-25T16:13:32;16.70;50.90
1614;DHT22;800;48.824;9.346;2023-04-25T16:16:00;16.70;51.90
1614;DHT22;800;48.824;9.346;2023-04-25T16:18:26;16.90;51.20
1614;DHT22;800;48.824;9.346;2023-04-25T16:20:52;16.90;50.40
1614;DHT22;800;48.824;9.346;2023-04-25T16:23:18;16.70;49.70
1614;DHT22;800;48.824;9.346;2023-04-25T16:25:44;16.70;49.60